sensor_id;sensor_type;location;lat;lon;timestamp;P1;durP1;ratioP1;P2;durP2;ratioP2
59239;SDS011;45010;53.640;10.578;2022-10-14T00:02:14;1.50;;;1.20;;
59239;SDS011;45010;53.640;10.578;2022-10-14T00:05:15;1.10;;;1.00;;
59239;SDS011;45010;53.640;10.578;2022-10-14T00:08:15;1.25;;;1.08;;
59239;SDS011;45010;53.640;10.578;2022-10-14T00:11:16;0.95;;;0.93;;
59239;SDS011;45010;53.640;10.578;2022-10-14T00:14:20;1.65;;;0.90;;
59239;SDS011;45010;53.640;10.578;2022-10-14T00:17:21;1.08;;;0.98;;
59239;SDS011;45010;53.640;10.578;2022-10-14T00:20:21;1.88;;;1.23;;
59239;SDS011;45010;53.640;10.578;2022-10-14T00:23:22;1.20;;;1.10;;
59239;SDS011;45010;53.640;10.578;2022-10-14T00:26:24;1.40;;;1.00;;
59239;SDS011;45010;53.640;10.578;2022-10-14T00:29:35;1.52;;;1.10;;
59239;SDS011;45010;53.640;10.578;2022-10-14T00:32:35;1.75;;;0.90;;
59239;SDS011;45010;53.640;10.578;2022-10-14T00:35:35;1.30;;;1.10;;
59239;SDS011;45010;53.640;10.578;2022-10-14T00:38:36;1.13;;;1.02;;
59239;SDS011;45010;53.640;10.578;2022-10-14T00:41:36;1.27;;;0.80;;
59239;SDS011;45010;53.640;10.578;2022-10-14T00:47:43;1.02;;;0.90;;
59239;SDS011;45010;53.640;10.578;2022-10-14T00:50:44;1.00;;;1.00;;
59239;SDS011;45010;53.640;10.578;2022-10-14T00:53:47;1.77;;;1.00;;
59239;SDS011;45010;53.640;10.578;2022-10-14T00:56:48;1.00;;;0.90;;
59239;SDS011;45010;53.640;10.578;2022-10-14T00:59:50;1.38;;;1.00;;
59239;SDS011;45010;53.640;10.578;2022-10-14T01:02:54;1.52;;;1.30;;
59239;SDS011;45010;53.640;10.578;2022-10-14T01:06:16;1.00;;;0.93;;
59239;SDS011;45010;53.640;10.578;2022-10-14T01:09:27;1.02;;;0.93;;
59239;SDS011;45010;53.640;10.578;2022-10-14T01:12:45;1.52;;;0.90;;
59239;SDS011;45010;53.640;10.578;2022-10-14T01:26:31;1.45;;;1.15;;
59239;SDS011;45010;53.640;10.578;2022-10-14T01:29:46;1.40;;;1.20;;
59239;SDS011;45010;53.640;10.578;2022-10-14T01:33:12;1.20;;;1.10;;
59239;SDS011;45010;53.640;10.578;2022-10-14T01:36:32;1.20;;;1.10;;
59239;SDS011;45010;53.640;10.578;2022-10-14T01:39:41;1.13;;;0.90;;
59239;SDS011;45010;53.640;10.578;2022-10-14T01:42:46;1.33;;;1.00;;
59239;SDS011;45010;53.640;10.578;2022-10-14T01:45:47;1.05;;;0.82;;
59239;SDS011;45010;53.640;10.578;2022-10-14T01:48:53;1.67;;;1.30;;
59239;SDS011;45010;53.640;10.578;2022-10-14T01:51:58;0.93;;;0.75;;
59239;SDS011;45010;53.640;10.578;2022-10-14T01:55:08;1.23;;;1.10;;
59239;SDS011;45010;53.640;10.578;2022-10-14T01:58:17;1.20;;;1.08;;
59239;SDS011;45010;53.640;10.578;2022-10-14T02:01:22;1.55;;;0.90;;
59239;SDS011;45010;53.640;10.578;2022-10-14T02:04:23;1.20;;;0.90;;
59239;SDS011;45010;53.640;10.578;2022-10-14T02:07:24;1.17;;;1.00;;
59239;SDS011;45010;53.640;10.578;2022-10-14T02:13:47;1.08;;;0.98;;
59239;SDS011;45010;53.640;10.578;2022-10-14T02:17:08;1.00;;;0.90;;
59239;SDS011;45010;53.640;10.578;2022-10-14T02:20:30;0.88;;;0.80;;
59239;SDS011;45010;53.640;10.578;2022-10-14T02:23:44;1.38;;;0.90;;
59239;SDS011;45010;53.640;10.578;2022-10-14T02:26:51;1.65;;;1.00;;
59239;SDS011;45010;53.640;10.578;2022-10-14T02:29:55;1.42;;;1.05;;
59239;SDS011;45010;53.640;10.578;2022-10-14T02:32:58;1.75;;;1.35;;
59239;SDS011;45010;53.640;10.578;2022-10-14T02:36:00;1.40;;;1.27;;
59239;SDS011;45010;53.640;10.578;2022-10-14T02:39:02;1.05;;;0.90;;
59239;SDS011;45010;53.640;10.578;2022-10-14T02:42:04;1.33;;;1.10;;
59239;SDS011;45010;53.640;10.578;2022-10-14T02:45:05;0.88;;;0.70;;
59239;SDS011;45010;53.640;10.578;2022-10-14T02:48:08;1.58;;;1.00;;
59239;SDS011;45010;53.640;10.578;2022-10-14T02:51:09;1.15;;;1.05;;
59239;SDS011;45010;53.640;10.578;2022-10-14T02:54:09;1.58;;;1.13;;
59239;SDS011;45010;53.640;10.578;2022-10-14T02:57:10;1.55;;;1.10;;
59239;SDS011;45010;53.640;10.578;2022-10-14T03:00:10;1.23;;;1.13;;
59239;SDS011;45010;53.640;10.578;2022-10-14T03:03:11;1.73;;;1.25;;
59239;SDS011;45010;53.640;10.578;2022-10-14T03:06:12;1.08;;;0.98;;
59239;SDS011;45010;53.640;10.578;2022-10-14T03:09:12;0.98;;;0.88;;
59239;SDS011;45010;53.640;10.578;2022-10-14T03:12:12;0.88;;;0.80;;
59239;SDS011;45010;53.640;10.578;2022-10-14T03:15:12;0.90;;;0.80;;
59239;SDS011;45010;53.640;10.578;2022-10-14T03:18:13;2.03;;;1.33;;
59239;SDS011;45010;53.640;10.578;2022-10-14T03:21:13;1.15;;;1.02;;
59239;SDS011;45010;53.640;10.578;2022-10-14T03:24:13;1.20;;;1.10;;
59239;SDS011;45010;53.640;10.578;2022-10-14T03:27:14;1.40;;;1.30;;
59239;SDS011;45010;53.640;10.578;2022-10-14T03:30:14;1.10;;;1.00;;
59239;SDS011;45010;53.640;10.578;2022-10-14T03:33:14;1.63;;;1.00;;
59239;SDS011;45010;53.640;10.578;2022-10-14T03:36:15;1.13;;;1.00;;
59239;SDS011;45010;53.640;10.578;2022-10-14T03:39:15;0.95;;;0.95;;
59239;SDS011;45010;53.640;10.578;2022-10-14T03:42:15;1.20;;;0.90;;
59239;SDS011;45010;53.640;10.578;2022-10-14T03:45:16;1.10;;;1.00;;
59239;SDS011;45010;53.640;10.578;2022-10-14T03:48:16;0.90;;;0.90;;
59239;SDS011;45010;53.640;10.578;2022-10-14T03:51:16;1.10;;;0.90;;
59239;SDS011;45010;53.640;10.578;2022-10-14T03:54:17;1.00;;;0.90;;
59239;SDS011;45010;53.640;10.578;2022-10-14T03:57:17;1.38;;;1.13;;
59239;SDS011;45010;53.640;10.578;2022-10-14T04:00:17;1.30;;;1.20;;
59239;SDS011;45010;53.640;10.578;2022-10-14T04:03:18;1.10;;;1.00;;
59239;SDS011;45010;53.640;10.578;2022-10-14T04:06:20;1.63;;;1.23;;
59239;SDS011;45010;53.640;10.578;2022-10-14T04:09:20;1.05;;;0.95;;
59239;SDS011;45010;53.640;10.578;2022-10-14T04:12:20;1.00;;;0.90;;
59239;SDS011;45010;53.640;10.578;2022-10-14T04:15:21;1.40;;;0.90;;
59239;SDS011;45010;53.640;10.578;2022-10-14T04:18:21;1.08;;;0.98;;
59239;SDS011;45010;53.640;10.578;2022-10-14T04:21:22;0.90;;;0.90;;
59239;SDS011;45010;53.640;10.578;2022-10-14T04:24:22;1.20;;;1.10;;
59239;SDS011;45010;53.640;10.578;2022-10-14T04:27:23;1.20;;;1.10;;
59239;SDS011;45010;53.640;10.578;2022-10-14T04:30:23;0.80;;;0.80;;
59239;SDS011;45010;53.640;10.578;2022-10-14T04:33:23;1.30;;;1.02;;
59239;SDS011;45010;53.640;10.578;2022-10-14T04:36:24;1.88;;;1.17;;
59239;SDS011;45010;53.640;10.578;2022-10-14T04:39:24;1.50;;;1.08;;
59239;SDS011;45010;53.640;10.578;2022-10-14T04:42:24;1.10;;;0.80;;
59239;SDS011;45010;53.640;10.578;2022-10-14T04:45:25;1.30;;;1.20;;
59239;SDS011;45010;53.640;10.578;2022-10-14T04:48:25;1.30;;;1.10;;
59239;SDS011;45010;53.640;10.578;2022-10-14T04:51:25;1.25;;;1.15;;
59239;SDS011;45010;53.640;10.578;2022-10-14T04:54:26;1.30;;;1.00;;
59239;SDS011;45010;53.640;10.578;2022-10-14T04:57:26;1.60;;;1.00;;
59239;SDS011;45010;53.640;10.578;2022-10-14T05:00:27;1.40;;;1.00;;
59239;SDS011;45010;53.640;10.578;2022-10-14T05:03:27;1.52;;;1.20;;
59239;SDS011;45010;53.640;10.578;2022-10-14T05:06:28;0.90;;;0.82;;
59239;SDS011;45010;53.640;10.578;2022-10-14T05:09:28;1.20;;;1.08;;
59239;SDS011;45010;53.640;10.578;2022-10-14T05:12:28;1.00;;;0.90;;
59239;SDS011;45010;53.640;10.578;2022-10-14T05:15:30;1.30;;;1.02;;
59239;SDS011;45010;53.640;10.578;2022-10-14T05:18:30;1.60;;;1.25;;
59239;SDS011;45010;53.640;10.578;2022-10-14T05:21:31;0.80;;;0.80;;
59239;SDS011;45010;53.640;10.578;2022-10-14T05:24:31;1.05;;;0.95;;
59239;SDS011;45010;53.640;10.578;2022-10-14T05:27:31;1.02;;;0.93;;
59239;SDS011;45010;53.640;10.578;2022-10-14T05:30:32;1.25;;;1.08;;
59239;SDS011;45010;53.640;10.578;2022-10-14T05:33:32;0.90;;;0.90;;
59239;SDS011;45010;53.640;10.578;2022-10-14T05:36:32;1.48;;;1.08;;
59239;SDS011;45010;53.640;10.578;2022-10-14T05:39:33;1.58;;;1.20;;
59239;SDS011;45010;53.640;10.578;2022-10-14T05:42:33;1.15;;;1.02;;
59239;SDS011;45010;53.640;10.578;2022-10-14T05:45:33;0.82;;;0.80;;
59239;SDS011;45010;53.640;10.578;2022-10-14T05:48:34;1.30;;;1.08;;
59239;SDS011;45010;53.640;10.578;2022-10-14T05:51:34;1.48;;;1.00;;
59239;SDS011;45010;53.640;10.578;2022-10-14T05:54:34;1.25;;;0.98;;
59239;SDS011;45010;53.640;10.578;2022-10-14T05:57:35;1.10;;;1.00;;
59239;SDS011;45010;53.640;10.578;2022-10-14T06:00:35;1.23;;;0.90;;
59239;SDS011;45010;53.640;10.578;2022-10-14T06:03:35;1.08;;;0.80;;
59239;SDS011;45010;53.640;10.578;2022-10-14T06:06:36;1.13;;;0.85;;
59239;SDS011;45010;53.640;10.578;2022-10-14T06:09:36;1.20;;;0.88;;
59239;SDS011;45010;53.640;10.578;2022-10-14T06:12:37;1.20;;;1.10;;
59239;SDS011;45010;53.640;10.578;2022-10-14T06:15:38;1.13;;;1.02;;
59239;SDS011;45010;53.640;10.578;2022-10-14T06:18:38;1.52;;;1.42;;
59239;SDS011;45010;53.640;10.578;2022-10-14T06:21:38;0.98;;;0.88;;
59239;SDS011;45010;53.640;10.578;2022-10-14T06:24:39;1.08;;;0.95;;
59239;SDS011;45010;53.640;10.578;2022-10-14T06:27:39;1.30;;;1.13;;
59239;SDS011;45010;53.640;10.578;2022-10-14T06:30:39;1.67;;;1.40;;
59239;SDS011;45010;53.640;10.578;2022-10-14T06:33:40;1.00;;;0.80;;
59239;SDS011;45010;53.640;10.578;2022-10-14T06:36:42;1.73;;;1.02;;
59239;SDS011;45010;53.640;10.578;2022-10-14T06:39:43;1.20;;;1.10;;
59239;SDS011;45010;53.640;10.578;2022-10-14T06:42:44;1.20;;;1.10;;
59239;SDS011;45010;53.640;10.578;2022-10-14T06:45:44;1.58;;;1.20;;
59239;SDS011;45010;53.640;10.578;2022-10-14T06:48:44;1.08;;;0.98;;
59239;SDS011;45010;53.640;10.578;2022-10-14T06:51:45;1.08;;;0.98;;
59239;SDS011;45010;53.640;10.578;2022-10-14T06:54:45;1.88;;;1.17;;
59239;SDS011;45010;53.640;10.578;2022-10-14T06:57:45;1.00;;;0.82;;
59239;SDS011;45010;53.640;10.578;2022-10-14T07:00:46;1.30;;;1.10;;
59239;SDS011;45010;53.640;10.578;2022-10-14T07:03:46;1.42;;;0.82;;
59239;SDS011;45010;53.640;10.578;2022-10-14T07:06:46;1.70;;;1.20;;
59239;SDS011;45010;53.640;10.578;2022-10-14T07:09:47;2.30;;;1.20;;
59239;SDS011;45010;53.640;10.578;2022-10-14T07:12:47;1.13;;;1.00;;
59239;SDS011;45010;53.640;10.578;2022-10-14T07:15:48;1.10;;;1.00;;
59239;SDS011;45010;53.640;10.578;2022-10-14T07:18:49;1.70;;;1.20;;
59239;SDS011;45010;53.640;10.578;2022-10-14T07:21:49;1.80;;;1.10;;
59239;SDS011;45010;53.640;10.578;2022-10-14T07:24:49;2.05;;;1.40;;
59239;SDS011;45010;53.640;10.578;2022-10-14T07:27:52;2.53;;;1.65;;
59239;SDS011;45010;53.640;10.578;2022-10-14T07:30:56;7.50;;;2.13;;
59239;SDS011;45010;53.640;10.578;2022-10-14T07:34:01;6.22;;;1.85;;
59239;SDS011;45010;53.640;10.578;2022-10-14T07:37:01;8.82;;;1.95;;
59239;SDS011;45010;53.640;10.578;2022-10-14T07:40:02;4.93;;;2.08;;
59239;SDS011;45010;53.640;10.578;2022-10-14T07:43:03;7.53;;;2.50;;
59239;SDS011;45010;53.640;10.578;2022-10-14T07:46:04;6.38;;;2.55;;
59239;SDS011;45010;53.640;10.578;2022-10-14T07:49:11;5.85;;;2.10;;
59239;SDS011;45010;53.640;10.578;2022-10-14T07:52:15;5.45;;;2.30;;
59239;SDS011;45010;53.640;10.578;2022-10-14T07:55:18;4.15;;;2.00;;
59239;SDS011;45010;53.640;10.578;2022-10-14T07:58:19;5.18;;;2.03;;
59239;SDS011;45010;53.640;10.578;2022-10-14T08:01:21;3.78;;;2.00;;
59239;SDS011;45010;53.640;10.578;2022-10-14T08:04:23;3.67;;;1.88;;
59239;SDS011;45010;53.640;10.578;2022-10-14T08:07:24;6.03;;;1.75;;
59239;SDS011;45010;53.640;10.578;2022-10-14T08:10:25;4.82;;;1.73;;
59239;SDS011;45010;53.640;10.578;2022-10-14T08:13:26;5.25;;;2.40;;
59239;SDS011;45010;53.640;10.578;2022-10-14T08:16:28;4.03;;;1.90;;
59239;SDS011;45010;53.640;10.578;2022-10-14T08:19:30;3.15;;;1.80;;
59239;SDS011;45010;53.640;10.578;2022-10-14T08:22:30;4.20;;;1.63;;
59239;SDS011;45010;53.640;10.578;2022-10-14T08:25:31;4.60;;;2.08;;
59239;SDS011;45010;53.640;10.578;2022-10-14T08:28:31;3.40;;;2.10;;
59239;SDS011;45010;53.640;10.578;2022-10-14T08:31:31;4.72;;;1.90;;
59239;SDS011;45010;53.640;10.578;2022-10-14T08:34:32;3.17;;;1.80;;
59239;SDS011;45010;53.640;10.578;2022-10-14T08:37:33;3.90;;;2.10;;
59239;SDS011;45010;53.640;10.578;2022-10-14T08:40:41;5.00;;;1.95;;
59239;SDS011;45010;53.640;10.578;2022-10-14T08:43:55;2.83;;;1.75;;
59239;SDS011;45010;53.640;10.578;2022-10-14T08:47:12;3.92;;;2.10;;
59239;SDS011;45010;53.640;10.578;2022-10-14T08:50:22;3.40;;;2.10;;
59239;SDS011;45010;53.640;10.578;2022-10-14T08:53:29;2.83;;;1.90;;
59239;SDS011;45010;53.640;10.578;2022-10-14T08:56:37;4.63;;;1.80;;
59239;SDS011;45010;53.640;10.578;2022-10-14T08:59:39;5.15;;;1.98;;
59239;SDS011;45010;53.640;10.578;2022-10-14T09:02:45;2.83;;;1.80;;
59239;SDS011;45010;53.640;10.578;2022-10-14T09:05:56;4.40;;;2.03;;
59239;SDS011;45010;53.640;10.578;2022-10-14T09:12:39;4.78;;;2.10;;
59239;SDS011;45010;53.640;10.578;2022-10-14T09:15:45;6.88;;;2.53;;
59239;SDS011;45010;53.640;10.578;2022-10-14T09:18:52;3.65;;;2.40;;
59239;SDS011;45010;53.640;10.578;2022-10-14T09:21:55;5.47;;;2.10;;
59239;SDS011;45010;53.640;10.578;2022-10-14T09:24:58;6.93;;;2.97;;
59239;SDS011;45010;53.640;10.578;2022-10-14T09:28:00;5.80;;;2.58;;
59239;SDS011;45010;53.640;10.578;2022-10-14T09:31:01;6.35;;;2.95;;
59239;SDS011;45010;53.640;10.578;2022-10-14T09:34:01;3.53;;;2.53;;
59239;SDS011;45010;53.640;10.578;2022-10-14T09:37:05;6.22;;;2.63;;
59239;SDS011;45010;53.640;10.578;2022-10-14T09:40:23;9.70;;;3.10;;
59239;SDS011;45010;53.640;10.578;2022-10-14T09:43:29;6.18;;;3.50;;
59239;SDS011;45010;53.640;10.578;2022-10-14T09:46:29;6.63;;;4.43;;
59239;SDS011;45010;53.640;10.578;2022-10-14T09:52:47;6.00;;;3.17;;
59239;SDS011;45010;53.640;10.578;2022-10-14T09:55:52;6.55;;;3.63;;
59239;SDS011;45010;53.640;10.578;2022-10-14T09:58:54;4.60;;;3.65;;
59239;SDS011;45010;53.640;10.578;2022-10-14T10:02:00;4.82;;;3.47;;
59239;SDS011;45010;53.640;10.578;2022-10-14T10:05:16;5.97;;;3.45;;
59239;SDS011;45010;53.640;10.578;2022-10-14T10:08:20;8.32;;;3.80;;
59239;SDS011;45010;53.640;10.578;2022-10-14T10:11:28;8.57;;;3.63;;
59239;SDS011;45010;53.640;10.578;2022-10-14T10:14:32;8.57;;;3.40;;
59239;SDS011;45010;53.640;10.578;2022-10-14T10:17:34;6.53;;;2.88;;
59239;SDS011;45010;53.640;10.578;2022-10-14T10:20:37;3.97;;;3.05;;
59239;SDS011;45010;53.640;10.578;2022-10-14T10:23:38;6.00;;;2.50;;
59239;SDS011;45010;53.640;10.578;2022-10-14T10:26:50;4.82;;;3.05;;
59239;SDS011;45010;53.640;10.578;2022-10-14T10:29:50;5.90;;;2.70;;
59239;SDS011;45010;53.640;10.578;2022-10-14T10:36:15;3.65;;;2.78;;
59239;SDS011;45010;53.640;10.578;2022-10-14T10:53:23;4.05;;;3.35;;
59239;SDS011;45010;53.640;10.578;2022-10-14T10:56:47;8.05;;;3.22;;
59239;SDS011;45010;53.640;10.578;2022-10-14T10:59:58;7.93;;;3.45;;
59239;SDS011;45010;53.640;10.578;2022-10-14T11:06:33;5.80;;;3.67;;
59239;SDS011;45010;53.640;10.578;2022-10-14T11:10:03;7.95;;;4.15;;
59239;SDS011;45010;53.640;10.578;2022-10-14T11:17:22;5.10;;;3.05;;
59239;SDS011;45010;53.640;10.578;2022-10-14T11:20:37;7.43;;;3.50;;
59239;SDS011;45010;53.640;10.578;2022-10-14T11:24:08;8.13;;;3.15;;
59239;SDS011;45010;53.640;10.578;2022-10-14T11:30:43;4.35;;;3.00;;
59239;SDS011;45010;53.640;10.578;2022-10-14T11:40:37;4.32;;;3.15;;
59239;SDS011;45010;53.640;10.578;2022-10-14T11:43:53;4.05;;;3.15;;
59239;SDS011;45010;53.640;10.578;2022-10-14T11:47:25;5.28;;;3.03;;
59239;SDS011;45010;53.640;10.578;2022-10-14T11:50:34;6.18;;;3.10;;
59239;SDS011;45010;53.640;10.578;2022-10-14T11:53:44;5.57;;;3.42;;
59239;SDS011;45010;53.640;10.578;2022-10-14T12:00:14;5.95;;;3.13;;
59239;SDS011;45010;53.640;10.578;2022-10-14T12:06:47;3.75;;;2.97;;
59239;SDS011;45010;53.640;10.578;2022-10-14T12:09:59;4.68;;;2.83;;
59239;SDS011;45010;53.640;10.578;2022-10-14T12:13:07;4.18;;;2.80;;
59239;SDS011;45010;53.640;10.578;2022-10-14T12:16:16;4.38;;;3.15;;
59239;SDS011;45010;53.640;10.578;2022-10-14T12:19:23;4.18;;;3.03;;
59239;SDS011;45010;53.640;10.578;2022-10-14T12:22:26;4.57;;;3.22;;
59239;SDS011;45010;53.640;10.578;2022-10-14T12:25:33;3.65;;;2.80;;
59239;SDS011;45010;53.640;10.578;2022-10-14T12:28:42;3.72;;;2.70;;
59239;SDS011;45010;53.640;10.578;2022-10-14T12:31:50;4.85;;;3.08;;
59239;SDS011;45010;53.640;10.578;2022-10-14T12:35:01;4.65;;;3.10;;
59239;SDS011;45010;53.640;10.578;2022-10-14T12:38:22;4.38;;;2.70;;
59239;SDS011;45010;53.640;10.578;2022-10-14T12:41:31;4.90;;;2.72;;
59239;SDS011;45010;53.640;10.578;2022-10-14T12:44:42;4.88;;;2.67;;
59239;SDS011;45010;53.640;10.578;2022-10-14T12:47:47;3.28;;;2.70;;
59239;SDS011;45010;53.640;10.578;2022-10-14T12:51:07;2.83;;;2.58;;
59239;SDS011;45010;53.640;10.578;2022-10-14T12:54:13;5.70;;;2.88;;
59239;SDS011;45010;53.640;10.578;2022-10-14T12:57:25;4.05;;;2.90;;
59239;SDS011;45010;53.640;10.578;2022-10-14T13:00:37;4.10;;;2.83;;
59239;SDS011;45010;53.640;10.578;2022-10-14T13:03:42;2.75;;;2.55;;
59239;SDS011;45010;53.640;10.578;2022-10-14T13:07:11;3.85;;;2.70;;
59239;SDS011;45010;53.640;10.578;2022-10-14T13:19:51;3.30;;;2.47;;
59239;SDS011;45010;53.640;10.578;2022-10-14T13:22:51;4.75;;;2.58;;
59239;SDS011;45010;53.640;10.578;2022-10-14T13:25:52;3.75;;;2.70;;
59239;SDS011;45010;53.640;10.578;2022-10-14T13:29:06;2.78;;;2.40;;
59239;SDS011;45010;53.640;10.578;2022-10-14T13:35:46;4.97;;;2.60;;
59239;SDS011;45010;53.640;10.578;2022-10-14T13:38:54;3.65;;;2.30;;
59239;SDS011;45010;53.640;10.578;2022-10-14T13:41:58;3.58;;;2.60;;
59239;SDS011;45010;53.640;10.578;2022-10-14T13:45:03;5.50;;;2.20;;
59239;SDS011;45010;53.640;10.578;2022-10-14T13:48:15;4.22;;;2.38;;
59239;SDS011;45010;53.640;10.578;2022-10-14T13:51:26;3.00;;;2.40;;
59239;SDS011;45010;53.640;10.578;2022-10-14T13:54:37;3.45;;;2.20;;
59239;SDS011;45010;53.640;10.578;2022-10-14T13:57:37;2.10;;;2.00;;
59239;SDS011;45010;53.640;10.578;2022-10-14T14:00:59;3.13;;;2.60;;
59239;SDS011;45010;53.640;10.578;2022-10-14T14:04:01;2.50;;;2.15;;
59239;SDS011;45010;53.640;10.578;2022-10-14T14:07:01;2.65;;;2.00;;
59239;SDS011;45010;53.640;10.578;2022-10-14T14:10:04;2.03;;;1.83;;
59239;SDS011;45010;53.640;10.578;2022-10-14T14:13:09;2.30;;;2.10;;
59239;SDS011;45010;53.640;10.578;2022-10-14T14:16:27;5.57;;;2.20;;
59239;SDS011;45010;53.640;10.578;2022-10-14T14:19:31;2.55;;;2.22;;
59239;SDS011;45010;53.640;10.578;2022-10-14T14:22:39;3.08;;;2.20;;
59239;SDS011;45010;53.640;10.578;2022-10-14T14:25:41;3.88;;;2.65;;
59239;SDS011;45010;53.640;10.578;2022-10-14T14:28:45;2.83;;;2.10;;
59239;SDS011;45010;53.640;10.578;2022-10-14T14:31:46;3.88;;;2.40;;
59239;SDS011;45010;53.640;10.578;2022-10-14T14:34:48;2.97;;;2.22;;
59239;SDS011;45010;53.640;10.578;2022-10-14T14:37:50;5.47;;;2.40;;
59239;SDS011;45010;53.640;10.578;2022-10-14T14:40:58;2.75;;;2.10;;
59239;SDS011;45010;53.640;10.578;2022-10-14T14:44:25;2.72;;;2.10;;
59239;SDS011;45010;53.640;10.578;2022-10-14T14:47:28;5.32;;;2.40;;
59239;SDS011;45010;53.640;10.578;2022-10-14T14:53:34;3.35;;;2.05;;
59239;SDS011;45010;53.640;10.578;2022-10-14T14:56:40;3.17;;;2.13;;
59239;SDS011;45010;53.640;10.578;2022-10-14T14:59:47;4.18;;;2.13;;
59239;SDS011;45010;53.640;10.578;2022-10-14T15:03:00;7.85;;;2.20;;
59239;SDS011;45010;53.640;10.578;2022-10-14T15:06:03;3.75;;;2.47;;
59239;SDS011;45010;53.640;10.578;2022-10-14T15:09:13;3.97;;;2.30;;
59239;SDS011;45010;53.640;10.578;2022-10-14T15:12:23;5.95;;;2.50;;
59239;SDS011;45010;53.640;10.578;2022-10-14T15:15:31;4.63;;;2.30;;
59239;SDS011;45010;53.640;10.578;2022-10-14T15:18:33;3.25;;;2.33;;
59239;SDS011;45010;53.640;10.578;2022-10-14T15:21:36;2.78;;;1.95;;
59239;SDS011;45010;53.640;10.578;2022-10-14T15:24:55;4.93;;;2.55;;
59239;SDS011;45010;53.640;10.578;2022-10-14T15:28:02;3.70;;;1.70;;
59239;SDS011;45010;53.640;10.578;2022-10-14T15:31:03;4.40;;;2.33;;
59239;SDS011;45010;53.640;10.578;2022-10-14T15:34:04;3.40;;;1.63;;
59239;SDS011;45010;53.640;10.578;2022-10-14T15:37:04;3.47;;;1.92;;
59239;SDS011;45010;53.640;10.578;2022-10-14T15:40:09;4.90;;;2.00;;
59239;SDS011;45010;53.640;10.578;2022-10-14T15:43:11;3.47;;;2.13;;
59239;SDS011;45010;53.640;10.578;2022-10-14T15:46:13;1.83;;;1.70;;
59239;SDS011;45010;53.640;10.578;2022-10-14T15:49:37;3.05;;;1.90;;
59239;SDS011;45010;53.640;10.578;2022-10-14T15:52:40;2.25;;;1.80;;
59239;SDS011;45010;53.640;10.578;2022-10-14T15:55:41;2.42;;;1.90;;
59239;SDS011;45010;53.640;10.578;2022-10-14T15:58:41;1.98;;;1.85;;
59239;SDS011;45010;53.640;10.578;2022-10-14T16:01:41;3.53;;;1.80;;
59239;SDS011;45010;53.640;10.578;2022-10-14T16:04:44;2.20;;;1.80;;
59239;SDS011;45010;53.640;10.578;2022-10-14T16:07:45;2.60;;;1.83;;
59239;SDS011;45010;53.640;10.578;2022-10-14T16:10:45;3.95;;;1.83;;
59239;SDS011;45010;53.640;10.578;2022-10-14T16:13:46;2.85;;;2.00;;
59239;SDS011;45010;53.640;10.578;2022-10-14T16:16:46;3.00;;;2.05;;
59239;SDS011;45010;53.640;10.578;2022-10-14T16:19:47;3.13;;;1.98;;
59239;SDS011;45010;53.640;10.578;2022-10-14T16:22:47;3.83;;;2.20;;
59239;SDS011;45010;53.640;10.578;2022-10-14T16:25:48;4.10;;;2.05;;
59239;SDS011;45010;53.640;10.578;2022-10-14T16:28:49;2.88;;;2.10;;
59239;SDS011;45010;53.640;10.578;2022-10-14T16:31:50;3.63;;;1.98;;
59239;SDS011;45010;53.640;10.578;2022-10-14T16:34:51;6.85;;;2.38;;
59239;SDS011;45010;53.640;10.578;2022-10-14T16:37:53;3.90;;;2.20;;
59239;SDS011;45010;53.640;10.578;2022-10-14T16:40:54;5.35;;;2.53;;
59239;SDS011;45010;53.640;10.578;2022-10-14T16:43:56;3.00;;;2.35;;
59239;SDS011;45010;53.640;10.578;2022-10-14T16:46:56;3.63;;;2.00;;
59239;SDS011;45010;53.640;10.578;2022-10-14T16:50:16;5.32;;;1.90;;
59239;SDS011;45010;53.640;10.578;2022-10-14T16:53:16;2.50;;;1.98;;
59239;SDS011;45010;53.640;10.578;2022-10-14T16:56:36;3.58;;;2.20;;
59239;SDS011;45010;53.640;10.578;2022-10-14T16:59:51;2.95;;;2.45;;
59239;SDS011;45010;53.640;10.578;2022-10-14T17:02:52;5.18;;;2.47;;
59239;SDS011;45010;53.640;10.578;2022-10-14T17:05:56;3.13;;;2.25;;
59239;SDS011;45010;53.640;10.578;2022-10-14T17:08:57;3.33;;;2.22;;
59239;SDS011;45010;53.640;10.578;2022-10-14T17:11:58;4.72;;;2.20;;
59239;SDS011;45010;53.640;10.578;2022-10-14T17:14:58;3.78;;;2.40;;
59239;SDS011;45010;53.640;10.578;2022-10-14T17:17:58;3.55;;;2.40;;
59239;SDS011;45010;53.640;10.578;2022-10-14T17:21:05;4.07;;;2.70;;
59239;SDS011;45010;53.640;10.578;2022-10-14T17:24:08;2.90;;;2.50;;
59239;SDS011;45010;53.640;10.578;2022-10-14T17:27:08;2.97;;;2.60;;
59239;SDS011;45010;53.640;10.578;2022-10-14T17:30:08;3.80;;;2.65;;
59239;SDS011;45010;53.640;10.578;2022-10-14T17:33:09;3.92;;;2.55;;
59239;SDS011;45010;53.640;10.578;2022-10-14T17:36:30;4.15;;;2.17;;
59239;SDS011;45010;53.640;10.578;2022-10-14T17:39:30;2.85;;;2.25;;
59239;SDS011;45010;53.640;10.578;2022-10-14T17:42:30;3.55;;;2.50;;
59239;SDS011;45010;53.640;10.578;2022-10-14T17:45:30;2.50;;;2.30;;
59239;SDS011;45010;53.640;10.578;2022-10-14T17:48:31;4.43;;;2.63;;
59239;SDS011;45010;53.640;10.578;2022-10-14T17:51:32;2.58;;;2.30;;
59239;SDS011;45010;53.640;10.578;2022-10-14T17:54:32;4.32;;;2.50;;
59239;SDS011;45010;53.640;10.578;2022-10-14T17:57:33;4.15;;;2.08;;
59239;SDS011;45010;53.640;10.578;2022-10-14T18:00:33;3.58;;;1.92;;
59239;SDS011;45010;53.640;10.578;2022-10-14T18:03:34;3.45;;;2.10;;
59239;SDS011;45010;53.640;10.578;2022-10-14T18:06:36;2.78;;;2.17;;
59239;SDS011;45010;53.640;10.578;2022-10-14T18:09:36;2.78;;;2.22;;
59239;SDS011;45010;53.640;10.578;2022-10-14T18:12:36;3.03;;;2.17;;
59239;SDS011;45010;53.640;10.578;2022-10-14T18:15:37;2.15;;;1.90;;
59239;SDS011;45010;53.640;10.578;2022-10-14T18:18:37;2.97;;;2.30;;
59239;SDS011;45010;53.640;10.578;2022-10-14T18:21:38;2.55;;;1.83;;
59239;SDS011;45010;53.640;10.578;2022-10-14T18:24:40;4.60;;;2.45;;
59239;SDS011;45010;53.640;10.578;2022-10-14T18:27:42;2.22;;;2.03;;
59239;SDS011;45010;53.640;10.578;2022-10-14T18:30:43;2.50;;;2.08;;
59239;SDS011;45010;53.640;10.578;2022-10-14T18:33:43;3.33;;;2.13;;
59239;SDS011;45010;53.640;10.578;2022-10-14T18:36:44;3.33;;;1.98;;
59239;SDS011;45010;53.640;10.578;2022-10-14T18:39:46;3.38;;;1.90;;
59239;SDS011;45010;53.640;10.578;2022-10-14T18:42:47;3.53;;;1.85;;
59239;SDS011;45010;53.640;10.578;2022-10-14T18:45:47;2.15;;;1.95;;
59239;SDS011;45010;53.640;10.578;2022-10-14T18:48:50;3.08;;;2.10;;
59239;SDS011;45010;53.640;10.578;2022-10-14T18:51:51;2.08;;;1.90;;
59239;SDS011;45010;53.640;10.578;2022-10-14T18:54:54;1.90;;;1.70;;
59239;SDS011;45010;53.640;10.578;2022-10-14T18:57:54;2.60;;;2.05;;
59239;SDS011;45010;53.640;10.578;2022-10-14T19:00:54;3.10;;;1.73;;
59239;SDS011;45010;53.640;10.578;2022-10-14T19:03:55;2.55;;;1.80;;
59239;SDS011;45010;53.640;10.578;2022-10-14T19:06:56;2.42;;;2.08;;
59239;SDS011;45010;53.640;10.578;2022-10-14T19:09:57;3.22;;;1.95;;
59239;SDS011;45010;53.640;10.578;2022-10-14T19:12:58;2.22;;;1.60;;
59239;SDS011;45010;53.640;10.578;2022-10-14T19:15:58;1.65;;;1.55;;
59239;SDS011;45010;53.640;10.578;2022-10-14T19:19:06;1.80;;;1.60;;
59239;SDS011;45010;53.640;10.578;2022-10-14T19:22:11;1.98;;;1.83;;
59239;SDS011;45010;53.640;10.578;2022-10-14T19:25:11;2.58;;;1.80;;
59239;SDS011;45010;53.640;10.578;2022-10-14T19:28:11;2.15;;;1.80;;
59239;SDS011;45010;53.640;10.578;2022-10-14T19:31:13;2.45;;;1.63;;
59239;SDS011;45010;53.640;10.578;2022-10-14T19:34:15;2.47;;;1.63;;